Time;durP1;ratioP1;P1;durP2;ratioP2;P2;SDS_P1;SDS_P2;PMS_P1;PMS_P2;Temp;Humidity;BMP_temperature;BMP_pressure;BME280_temperature;BME280_humidity;BME280_pressure;Samples;Min_cycle;Max_cycle;Signal;HPM_P1;HPM_P2
2022/07/28 00:00:15;;;;;;;5.90;1.95;;;16.60;99.90;;;;;;5031888;28;20037;-72
2022/07/28 00:02:41;;;;;;;4.97;1.60;;;16.50;99.90;;;;;;5032338;28;20022;-73
2022/07/28 00:05:07;;;;;;;3.90;1.55;;;16.50;99.90;;;;;;5032205;28;20156;-73
2022/07/28 00:07:32;;;;;;;2.78;1.20;;;16.40;99.90;;;;;;5026326;28;20030;-72
2022/07/28 00:09:58;;;;;;;4.63;1.45;;;16.40;99.90;;;;;;5012437;28;20032;-73
2022/07/28 00:12:23;;;;;;;3.42;1.40;;;16.40;99.90;;;;;;5010417;28;20392;-73
2022/07/28 00:14:49;;;;;;;3.83;1.42;;;16.20;99.90;;;;;;5024506;28;20625;-73
2022/07/28 00:17:14;;;;;;;3.88;1.58;;;16.10;99.90;;;;;;5026807;28;20034;-73
2022/07/28 00:19:40;;;;;;;3.50;1.45;;;16.00;99.90;;;;;;5012373;28;20036;-73
2022/07/28 00:22:06;;;;;;;3.53;1.45;;;16.00;99.90;;;;;;5011619;28;20418;-74
2022/07/28 00:24:32;;;;;;;4.68;1.60;;;15.80;99.90;;;;;;5022484;28;20484;-73
2022/07/28 00:26:58;;;;;;;2.75;1.40;;;16.00;99.90;;;;;;5031814;28;20032;-74
2022/07/28 00:29:24;;;;;;;3.38;1.40;;;15.90;99.90;;;;;;5031884;28;20430;-73
2022/07/28 00:31:50;;;;;;;7.72;1.80;;;16.00;99.90;;;;;;5018143;28;20026;-73
2022/07/28 00:34:15;;;;;;;3.35;1.33;;;15.80;99.90;;;;;;5019560;28;20030;-74
2022/07/28 00:36:41;;;;;;;2.38;1.40;;;15.80;99.90;;;;;;5025150;28;20018;-74
2022/07/28 00:39:06;;;;;;;4.75;1.52;;;15.80;99.90;;;;;;5012114;28;20026;-73
2022/07/28 00:41:32;;;;;;;1.50;1.40;;;15.70;99.90;;;;;;5011289;28;20056;-73
2022/07/28 00:43:58;;;;;;;4.38;1.67;;;15.80;99.90;;;;;;5023841;28;20383;-73
2022/07/28 00:46:23;;;;;;;6.35;1.60;;;15.80;99.90;;;;;;5031737;28;20025;-72
2022/07/28 00:48:53;;;;;;;5.53;1.58;;;15.80;99.90;;;;;;5031729;28;20541;-72
2022/07/28 00:51:23;;;;;;;3.60;1.63;;;15.80;99.90;;;;;;5011443;28;20022;-72
2022/07/28 00:53:49;;;;;;;3.80;1.88;;;15.70;99.90;;;;;;5011869;28;20036;-73
2022/07/28 00:56:15;;;;;;;3.72;1.55;;;15.90;99.90;;;;;;5005614;28;20021;-73
2022/07/28 00:58:41;;;;;;;5.65;1.70;;;15.90;99.90;;;;;;5018384;28;20026;-73
2022/07/28 01:01:09;;;;;;;2.50;1.38;;;16.00;99.90;;;;;;5005192;28;20120;-73
2022/07/28 01:03:39;;;;;;;4.10;1.60;;;16.10;99.90;;;;;;5017846;28;20021;-73
2022/07/28 01:06:29;;;;;;;3.40;1.58;;;16.00;99.90;;;;;;5019029;28;20018;-74
2022/07/28 01:09:15;;;;;;;2.15;1.30;;;16.10;99.90;;;;;;5018431;28;20364;-74
2022/07/28 01:11:57;;;;;;;3.28;1.73;;;15.90;99.90;;;;;;5016220;28;20022;-73
2022/07/28 01:14:43;;;;;;;5.43;1.55;;;15.90;99.90;;;;;;5011633;28;20014;-73
2022/07/28 01:17:34;;;;;;;3.75;1.50;;;15.90;99.90;;;;;;5024788;28;20026;-73
2022/07/28 01:20:12;;;;;;;4.10;1.60;;;15.90;99.90;;;;;;5025079;28;20040;-74
2022/07/28 01:22:44;;;;;;;6.07;2.00;;;15.90;99.90;;;;;;5020177;28;20029;-73
2022/07/28 01:25:22;;;;;;;3.38;1.40;;;15.70;99.90;;;;;;5013914;28;20088;-73
2022/07/28 01:27:47;;;;;;;2.75;1.58;;;15.90;99.90;;;;;;5011604;28;20018;-74
2022/07/28 01:30:40;;;;;;;2.80;1.23;;;15.70;99.90;;;;;;5016919;28;20104;-73
2022/07/28 01:33:11;;;;;;;4.90;2.05;;;15.80;99.90;;;;;;5031221;28;20100;-73
2022/07/28 01:36:02;;;;;;;3.55;1.70;;;15.80;99.90;;;;;;5031135;28;20617;-73
2022/07/28 01:38:31;;;;;;;3.08;1.60;;;15.60;99.90;;;;;;5005476;28;20022;-73
2022/07/28 01:40:59;;;;;;;3.80;1.83;;;15.50;99.90;;;;;;5028908;28;20112;-74
2022/07/28 01:43:30;;;;;;;5.43;1.60;;;15.50;99.90;;;;;;5018834;28;20030;-72
2022/07/28 01:46:06;;;;;;;4.15;1.50;;;15.60;99.90;;;;;;5032998;28;20105;-72
2022/07/28 01:48:33;;;;;;;3.05;1.60;;;15.20;99.90;;;;;;5025429;28;20034;-72
2022/07/28 01:50:59;;;;;;;4.38;1.80;;;15.50;99.90;;;;;;5001218;28;20046;-72
2022/07/28 01:53:26;;;;;;;6.40;1.77;;;15.30;99.90;;;;;;5014754;28;20084;-72
2022/07/28 01:55:53;;;;;;;4.55;1.88;;;15.10;99.90;;;;;;5014748;28;20065;-72
2022/07/28 01:58:21;;;;;;;2.80;1.70;;;15.10;99.90;;;;;;5025143;28;20018;-73
2022/07/28 02:00:49;;;;;;;4.18;1.67;;;15.40;99.90;;;;;;5016857;28;20044;-73
2022/07/28 02:03:17;;;;;;;2.53;1.80;;;15.00;99.90;;;;;;5015001;28;20437;-73
2022/07/28 02:05:44;;;;;;;2.90;1.90;;;15.10;99.90;;;;;;5027792;28;20029;-72
2022/07/28 02:08:12;;;;;;;3.25;1.80;;;15.00;99.90;;;;;;5014763;28;20025;-73
2022/07/28 02:10:40;;;;;;;5.68;1.60;;;14.90;99.90;;;;;;5022829;28;20019;-73
2022/07/28 02:13:08;;;;;;;5.30;1.60;;;14.80;99.90;;;;;;5006014;28;20021;-73
2022/07/28 02:15:34;;;;;;;4.85;1.90;;;14.70;99.90;;;;;;5027830;28;20056;-73
2022/07/28 02:18:01;;;;;;;3.83;1.67;;;14.90;99.90;;;;;;5024561;28;20021;-73
2022/07/28 02:20:28;;;;;;;2.53;1.60;;;15.00;99.90;;;;;;5015697;28;20030;-74
2022/07/28 02:22:55;;;;;;;3.55;1.77;;;14.80;99.90;;;;;;5025896;28;20041;-74
2022/07/28 02:25:21;;;;;;;3.67;1.73;;;14.90;99.90;;;;;;5027752;28;20065;-75
2022/07/28 02:27:59;;;;;;;2.13;1.75;;;14.70;99.90;;;;;;5025759;28;20432;-74
2022/07/28 02:30:32;;;;;;;5.32;2.00;;;14.90;99.90;;;;;;5032169;28;20028;-73
2022/07/28 02:33:04;;;;;;;3.65;1.70;;;14.60;99.90;;;;;;5034138;28;20021;-73
2022/07/28 02:35:44;;;;;;;5.35;1.75;;;14.70;99.90;;;;;;5033920;28;20025;-74
2022/07/28 02:38:21;;;;;;;3.88;2.00;;;14.70;99.90;;;;;;5033867;28;20476;-73
2022/07/28 02:40:50;;;;;;;4.80;1.85;;;15.10;99.90;;;;;;5033297;28;20392;-73
2022/07/28 02:43:29;;;;;;;4.03;1.80;;;14.70;99.90;;;;;;5033768;28;20037;-73
2022/07/28 02:46:00;;;;;;;4.88;1.95;;;15.00;99.90;;;;;;5033696;28;20025;-73
2022/07/28 02:48:28;;;;;;;3.90;1.80;;;14.90;99.90;;;;;;5033781;28;20064;-73
2022/07/28 02:50:56;;;;;;;5.13;2.05;;;15.00;99.90;;;;;;5016850;28;20071;-73
2022/07/28 02:53:22;;;;;;;4.13;1.83;;;14.80;99.90;;;;;;5013895;28;20080;-72
2022/07/28 02:55:48;;;;;;;5.07;2.20;;;14.70;99.90;;;;;;5013353;28;20088;-72
2022/07/28 02:58:17;;;;;;;4.18;1.88;;;14.70;99.90;;;;;;5023210;28;20024;-73
2022/07/28 03:00:43;;;;;;;3.53;1.77;;;14.80;99.90;;;;;;5032852;28;20048;-72
2022/07/28 03:03:10;;;;;;;3.95;1.70;;;14.80;99.90;;;;;;5033520;28;20117;-73
2022/07/28 03:05:35;;;;;;;4.22;1.77;;;14.80;99.90;;;;;;5033348;28;20812;-73
2022/07/28 03:08:01;;;;;;;3.60;1.70;;;14.80;99.90;;;;;;5033438;28;20113;-74
2022/07/28 03:10:27;;;;;;;4.95;2.10;;;15.00;99.90;;;;;;5016294;28;20030;-73
2022/07/28 03:12:55;;;;;;;3.42;1.80;;;14.80;99.90;;;;;;5013470;28;20026;-72
2022/07/28 03:15:21;;;;;;;3.63;1.90;;;14.90;99.90;;;;;;5013674;28;20050;-73
2022/07/28 03:17:47;;;;;;;3.22;1.70;;;14.90;99.90;;;;;;5013438;28;20108;-73
2022/07/28 03:20:13;;;;;;;4.00;1.90;;;15.00;99.90;;;;;;5013091;28;20121;-73
2022/07/28 03:22:39;;;;;;;3.03;1.70;;;15.00;99.90;;;;;;5022721;28;20021;-75
2022/07/28 03:25:16;;;;;;;3.95;1.90;;;15.00;99.90;;;;;;5015770;28;21386;-74
2022/07/28 03:27:46;;;;;;;3.25;1.70;;;15.00;99.90;;;;;;5011914;28;20480;-75
2022/07/28 03:30:16;;;;;;;4.65;1.70;;;15.00;99.90;;;;;;5012933;28;20057;-73
2022/07/28 03:32:50;;;;;;;4.30;2.22;;;15.10;99.90;;;;;;5013144;28;20030;-73
2022/07/28 03:35:17;;;;;;;2.83;1.80;;;15.10;99.90;;;;;;5013172;28;20045;-74
2022/07/28 03:37:54;;;;;;;6.28;2.22;;;15.10;99.90;;;;;;5013047;28;20026;-75
2022/07/28 03:40:22;;;;;;;6.10;2.22;;;15.00;99.90;;;;;;5000360;28;20026;-75
2022/07/28 03:42:49;;;;;;;4.38;2.05;;;15.10;99.90;;;;;;5014584;28;20053;-75
2022/07/28 03:45:16;;;;;;;4.40;2.08;;;15.00;99.90;;;;;;5023121;28;20026;-75
2022/07/28 03:47:52;;;;;;;5.55;2.05;;;15.00;99.90;;;;;;5012734;28;20052;-74
2022/07/28 03:50:27;;;;;;;2.95;1.80;;;15.10;99.90;;;;;;5012393;28;20026;-75
2022/07/28 03:52:53;;;;;;;3.83;2.03;;;15.10;99.90;;;;;;5018452;28;20542;-74
2022/07/28 03:55:20;;;;;;;2.83;2.05;;;15.10;99.90;;;;;;5020227;28;20069;-74
2022/07/28 03:57:46;;;;;;;5.80;1.90;;;15.10;99.90;;;;;;5016258;28;20026;-74
2022/07/28 04:00:15;;;;;;;2.65;1.70;;;15.20;99.90;;;;;;5012497;28;20041;-73
2022/07/28 04:02:44;;;;;;;4.03;1.95;;;15.20;99.90;;;;;;5025742;28;20033;-73
2022/07/28 04:05:15;;;;;;;3.50;2.20;;;15.30;99.90;;;;;;5008075;28;20038;-73
2022/07/28 04:07:41;;;;;;;6.05;2.00;;;15.20;99.90;;;;;;5007357;28;20113;-73
2022/07/28 04:10:09;;;;;;;6.47;2.13;;;15.20;99.90;;;;;;5006636;28;20108;-73
2022/07/28 04:12:47;;;;;;;3.00;1.70;;;15.20;99.90;;;;;;5019709;28;20018;-75
2022/07/28 04:15:14;;;;;;;4.55;2.10;;;15.40;99.90;;;;;;5015005;28;20065;-75
2022/07/28 04:17:40;;;;;;;3.20;1.77;;;15.40;99.90;;;;;;5012209;28;20037;-74
2022/07/28 04:20:07;;;;;;;3.47;1.80;;;15.10;99.90;;;;;;5025455;28;20044;-73
2022/07/28 04:22:33;;;;;;;4.50;2.15;;;14.80;99.90;;;;;;5021579;28;20139;-75
2022/07/28 04:25:00;;;;;;;6.40;2.17;;;14.60;99.90;;;;;;5018557;28;20100;-75
2022/07/28 04:27:26;;;;;;;5.13;2.40;;;14.60;99.90;;;;;;5021983;28;20029;-75
2022/07/28 04:29:52;;;;;;;3.08;1.90;;;14.60;99.90;;;;;;5025343;28;20513;-74
2022/07/28 04:32:18;;;;;;;5.72;2.20;;;14.40;99.90;;;;;;5010311;28;20026;-75
2022/07/28 04:34:43;;;;;;;8.50;2.33;;;14.60;99.90;;;;;;5015583;28;20172;-75
2022/07/28 04:37:09;;;;;;;4.05;2.00;;;14.50;99.90;;;;;;5021713;28;20447;-75
2022/07/28 04:39:34;;;;;;;2.33;1.90;;;14.50;99.90;;;;;;5011942;28;20064;-73
2022/07/28 04:42:01;;;;;;;3.40;2.10;;;14.50;99.90;;;;;;5011453;28;20548;-73
2022/07/28 04:44:26;;;;;;;3.55;2.10;;;14.60;99.90;;;;;;5011801;28;20558;-73
2022/07/28 04:46:52;;;;;;;3.35;2.20;;;14.30;99.90;;;;;;5011831;28;20025;-72
2022/07/28 04:49:17;;;;;;;3.30;2.13;;;14.50;99.90;;;;;;5011748;28;20084;-73
2022/07/28 04:51:48;;;;;;;4.00;2.25;;;14.30;99.90;;;;;;5011249;28;20538;-73
2022/07/28 04:54:14;;;;;;;4.90;2.40;;;14.40;99.90;;;;;;5010661;28;20022;-72
2022/07/28 04:56:39;;;;;;;4.47;2.17;;;14.60;99.90;;;;;;5011844;28;20469;-73
2022/07/28 04:59:05;;;;;;;3.33;2.20;;;14.60;99.90;;;;;;5015274;28;20037;-74
2022/07/28 05:01:31;;;;;;;5.88;1.95;;;14.80;99.90;;;;;;5030914;28;20036;-74
2022/07/28 05:03:56;;;;;;;6.40;2.13;;;14.80;99.90;;;;;;5028227;28;20544;-74
2022/07/28 05:06:22;;;;;;;5.05;2.03;;;14.80;99.90;;;;;;5021429;28;20021;-73
2022/07/28 05:08:49;;;;;;;3.75;2.10;;;14.90;99.90;;;;;;5015271;28;20069;-74
2022/07/28 05:11:15;;;;;;;6.85;2.42;;;15.10;99.90;;;;;;5011188;28;20029;-73
2022/07/28 05:13:41;;;;;;;5.40;2.15;;;15.20;99.90;;;;;;5011619;28;20030;-73
2022/07/28 05:16:06;;;;;;;2.92;2.00;;;15.30;99.90;;;;;;5011613;28;20404;-73
2022/07/28 05:18:32;;;;;;;3.22;2.40;;;15.40;99.90;;;;;;5028426;28;20033;-73
2022/07/28 05:20:57;;;;;;;2.65;1.83;;;15.70;99.90;;;;;;5034576;28;20033;-73
2022/07/28 05:23:24;;;;;;;4.28;2.30;;;15.80;99.90;;;;;;5035242;28;20456;-73
2022/07/28 05:25:49;;;;;;;6.82;2.33;;;16.00;99.90;;;;;;5035136;28;20416;-73
2022/07/28 05:28:15;;;;;;;6.03;2.22;;;16.10;99.90;;;;;;5019021;28;20072;-73
2022/07/28 05:30:40;;;;;;;4.75;2.10;;;16.40;99.90;;;;;;5014734;28;20025;-73
2022/07/28 05:33:06;;;;;;;6.63;2.22;;;16.60;99.90;;;;;;5028708;28;20038;-74
2022/07/28 05:35:31;;;;;;;5.13;2.22;;;16.30;99.90;;;;;;5015302;28;20037;-75
2022/07/28 05:37:57;;;;;;;6.65;2.10;;;16.50;99.90;;;;;;5031079;28;20037;-74
2022/07/28 05:40:23;;;;;;;5.05;1.85;;;16.30;99.90;;;;;;5034407;28;20466;-73
2022/07/28 05:42:48;;;;;;;3.47;1.85;;;16.50;99.90;;;;;;5034975;28;20027;-73
2022/07/28 05:45:14;;;;;;;4.00;2.00;;;16.50;99.90;;;;;;5034826;28;20060;-73
2022/07/28 05:47:46;;;;;;;9.43;2.42;;;16.70;99.90;;;;;;5017065;28;20484;-73
2022/07/28 05:50:13;;;;;;;10.35;1.90;;;16.90;99.90;;;;;;5014735;28;20080;-73
2022/07/28 05:52:39;;;;;;;6.15;2.13;;;17.10;99.90;;;;;;5017402;28;20038;-73
2022/07/28 05:55:05;;;;;;;3.83;2.00;;;17.40;99.90;;;;;;5023725;28;20107;-73
2022/07/28 05:57:32;;;;;;;2.92;1.80;;;17.40;99.90;;;;;;5014674;28;20125;-73
2022/07/28 05:59:57;;;;;;;5.40;2.10;;;17.60;99.90;;;;;;5014780;28;20453;-73
2022/07/28 06:02:23;;;;;;;5.45;1.88;;;17.70;99.90;;;;;;5031618;28;20087;-72
2022/07/28 06:04:48;;;;;;;4.97;1.90;;;17.80;99.90;;;;;;5031925;28;20029;-73
2022/07/28 06:07:14;;;;;;;5.22;1.95;;;17.80;99.90;;;;;;5014667;28;20018;-73
2022/07/28 06:09:39;;;;;;;4.75;1.90;;;17.80;99.90;;;;;;5014761;28;20440;-72
2022/07/28 06:12:05;;;;;;;5.30;1.80;;;17.80;99.90;;;;;;5017833;28;20383;-73
2022/07/28 06:14:31;;;;;;;2.72;1.60;;;18.00;99.90;;;;;;5028707;28;20030;-73
2022/07/28 06:16:57;;;;;;;5.88;2.05;;;18.10;99.90;;;;;;5014258;28;20029;-73
2022/07/28 06:19:22;;;;;;;5.28;2.00;;;18.30;99.90;;;;;;5014499;28;20032;-73
2022/07/28 06:21:51;;;;;;;6.78;2.20;;;18.50;99.90;;;;;;5013713;28;20491;-73
2022/07/28 06:24:17;;;;;;;4.22;1.98;;;18.60;99.90;;;;;;5014369;28;20071;-73
2022/07/28 06:26:42;;;;;;;5.43;1.90;;;18.70;99.90;;;;;;5014190;28;20022;-72
2022/07/28 06:29:08;;;;;;;3.35;2.10;;;18.70;99.90;;;;;;5014355;28;20030;-73
2022/07/28 06:31:34;;;;;;;4.18;1.88;;;18.90;99.90;;;;;;5012847;28;20041;-72
2022/07/28 06:34:00;;;;;;;3.75;1.70;;;18.90;99.90;;;;;;5014590;28;20432;-71
2022/07/28 06:36:25;;;;;;;4.45;1.90;;;19.10;99.90;;;;;;5013934;28;20115;-73
2022/07/28 06:38:51;;;;;;;5.57;1.90;;;19.10;99.90;;;;;;5014221;28;20407;-73
2022/07/28 06:41:16;;;;;;;3.97;1.75;;;19.20;99.90;;;;;;5030615;28;20061;-72
2022/07/28 06:43:42;;;;;;;4.15;1.83;;;19.30;99.90;;;;;;5033821;28;20100;-73
2022/07/28 06:46:08;;;;;;;5.15;1.77;;;19.20;99.90;;;;;;5016746;28;20030;-72
2022/07/28 06:48:38;;;;;;;6.70;1.70;;;19.30;99.90;;;;;;5013878;28;20033;-73
2022/07/28 06:51:04;;;;;;;3.80;1.83;;;19.20;99.90;;;;;;5012503;28;20014;-73
2022/07/28 06:53:30;;;;;;;5.22;1.70;;;19.40;99.90;;;;;;5013556;28;20018;-73
2022/07/28 06:55:56;;;;;;;4.72;1.50;;;19.40;99.90;;;;;;5013737;28;20034;-73
2022/07/28 06:58:22;;;;;;;5.05;1.60;;;19.70;99.90;;;;;;5013753;28;20034;-73
2022/07/28 07:00:47;;;;;;;3.47;1.60;;;19.60;99.90;;;;;;5013134;28;20034;-73
2022/07/28 07:03:13;;;;;;;2.47;1.38;;;19.50;99.90;;;;;;5013818;28;20061;-73
2022/07/28 07:05:38;;;;;;;5.78;1.73;;;19.60;99.90;;;;;;5013499;28;20432;-73
2022/07/28 07:08:05;;;;;;;3.83;1.70;;;19.60;99.90;;;;;;5012457;28;20101;-73
2022/07/28 07:10:30;;;;;;;2.58;1.50;;;19.50;99.90;;;;;;5012995;28;20104;-73
2022/07/28 07:12:56;;;;;;;4.50;1.80;;;19.50;99.90;;;;;;5013436;28;20425;-73
2022/07/28 07:15:22;;;;;;;2.70;1.40;;;19.70;99.90;;;;;;5013190;28;20084;-73
2022/07/28 07:17:47;;;;;;;2.58;1.48;;;19.70;99.90;;;;;;5013442;28;20040;-73
2022/07/28 07:20:13;;;;;;;5.00;1.90;;;19.90;99.90;;;;;;5012872;28;20062;-73
2022/07/28 07:22:43;;;;;;;3.70;1.60;;;19.90;99.90;;;;;;5013204;28;20447;-73
2022/07/28 07:25:17;;;;;;;1.83;1.52;;;20.10;99.90;;;;;;5013112;28;20033;-73
2022/07/28 07:27:43;;;;;;;2.58;1.70;;;20.20;99.90;;;;;;5013314;28;20481;-72
2022/07/28 07:30:10;;;;;;;2.65;1.42;;;20.60;99.90;;;;;;5032037;28;20097;-72
2022/07/28 07:32:36;;;;;;;5.65;2.00;;;20.50;99.90;;;;;;5032574;28;20049;-73
2022/07/28 07:35:03;;;;;;;3.00;1.52;;;20.40;99.90;;;;;;5013844;28;20030;-73
2022/07/28 07:37:31;;;;;;;2.92;1.80;;;20.80;99.90;;;;;;5013018;28;20034;-73
2022/07/28 07:39:58;;;;;;;3.72;1.65;;;20.90;99.90;;;;;;5032569;28;20584;-73
2022/07/28 07:42:23;;;;;;;4.50;1.70;;;21.00;99.90;;;;;;5031513;28;20082;-72
2022/07/28 07:44:49;;;;;;;4.72;1.67;;;21.10;99.90;;;;;;5032318;28;20025;-72
2022/07/28 07:47:15;;;;;;;4.03;1.85;;;21.10;99.90;;;;;;5032478;28;20163;-73
2022/07/28 07:49:40;;;;;;;3.40;1.70;;;21.10;99.90;;;;;;5003956;28;20026;-73
2022/07/28 07:52:06;;;;;;;2.53;1.48;;;21.00;99.90;;;;;;5010452;28;20022;-73
2022/07/28 07:54:31;;;;;;;3.53;1.70;;;21.20;99.90;;;;;;5012519;28;20547;-73
2022/07/28 07:56:57;;;;;;;4.93;1.88;;;21.60;99.90;;;;;;5011362;28;20121;-73
2022/07/28 07:59:22;;;;;;;4.97;1.73;;;21.50;99.90;;;;;;5012649;28;20385;-73
2022/07/28 08:01:53;;;;;;;3.78;1.50;;;21.80;99.90;;;;;;5010236;28;20022;-73
2022/07/28 08:04:22;;;;;;;3.08;1.50;;;21.80;99.90;;;;;;5004487;28;20117;-73
2022/07/28 08:06:49;;;;;;;4.45;1.65;;;22.00;99.90;;;;;;5012368;28;20030;-72
2022/07/28 08:09:15;;;;;;;3.25;1.48;;;21.80;99.90;;;;;;5012322;28;20022;-73
2022/07/28 08:11:41;;;;;;;4.50;1.60;;;22.10;99.90;;;;;;5011813;28;20018;-72
2022/07/28 08:14:07;;;;;;;3.60;1.45;;;22.00;99.90;;;;;;5012437;28;20468;-72
2022/07/28 08:16:33;;;;;;;4.82;1.67;;;21.90;99.90;;;;;;5012412;28;20105;-73
2022/07/28 08:18:59;;;;;;;3.35;1.52;;;22.10;99.90;;;;;;5012359;28;20026;-73
2022/07/28 08:21:25;;;;;;;3.20;1.40;;;22.30;99.90;;;;;;5011578;28;20026;-73
2022/07/28 08:23:51;;;;;;;4.25;1.50;;;22.40;99.90;;;;;;5012245;28;20084;-73
2022/07/28 08:26:17;;;;;;;4.50;1.65;;;22.30;99.90;;;;;;5011927;28;20033;-73
2022/07/28 08:28:43;;;;;;;2.20;1.40;;;22.50;99.80;;;;;;5012163;28;20473;-72
2022/07/28 08:31:08;;;;;;;4.40;1.75;;;22.50;99.60;;;;;;5007427;28;20029;-73
2022/07/28 08:33:34;;;;;;;3.30;1.60;;;22.70;99.30;;;;;;5012160;28;20034;-73
2022/07/28 08:36:00;;;;;;;2.88;1.50;;;22.50;99.40;;;;;;5012058;28;20117;-73
2022/07/28 08:38:25;;;;;;;5.72;1.45;;;22.60;99.40;;;;;;5012089;28;20050;-73
2022/07/28 08:40:55;;;;;;;3.80;1.50;;;22.80;99.00;;;;;;5011434;28;20100;-73
2022/07/28 08:43:48;;;;;;;3.50;1.50;;;23.10;98.90;;;;;;5011983;28;20030;-73
2022/07/28 08:46:14;;;;;;;4.82;1.60;;;22.90;98.60;;;;;;5010885;28;20038;-73
2022/07/28 08:48:42;;;;;;;2.63;1.60;;;23.00;98.30;;;;;;5011808;28;20073;-73
2022/07/28 08:51:10;;;;;;;4.55;1.40;;;22.80;98.30;;;;;;5011148;28;20361;-73
2022/07/28 08:53:38;;;;;;;2.28;1.50;;;22.50;98.10;;;;;;5011592;28;20093;-73
2022/07/28 08:56:05;;;;;;;3.97;1.58;;;22.60;98.60;;;;;;5011481;28;20025;-73
2022/07/28 08:58:33;;;;;;;2.50;1.70;;;22.90;98.30;;;;;;5010587;28;20053;-73
2022/07/28 09:00:58;;;;;;;4.70;1.98;;;22.90;97.90;;;;;;5011130;28;20025;-73
2022/07/28 09:03:26;;;;;;;3.25;1.50;;;23.10;97.90;;;;;;5011792;28;20021;-73
2022/07/28 09:05:52;;;;;;;6.35;1.52;;;23.00;97.70;;;;;;5011549;28;20030;-73
2022/07/28 09:08:18;;;;;;;3.05;1.40;;;23.30;97.50;;;;;;5011665;28;20024;-73
2022/07/28 09:10:45;;;;;;;2.17;1.60;;;23.30;97.20;;;;;;5006413;28;20109;-73
2022/07/28 09:13:10;;;;;;;4.05;1.80;;;23.50;97.50;;;;;;5005045;28;20050;-72
2022/07/28 09:15:36;;;;;;;2.45;1.65;;;23.80;97.10;;;;;;5011477;28;20491;-73
2022/07/28 09:18:03;;;;;;;6.78;1.60;;;23.80;96.60;;;;;;5011607;28;20504;-73
2022/07/28 09:20:28;;;;;;;5.60;1.92;;;23.90;96.80;;;;;;5011411;28;20030;-73
2022/07/28 09:23:02;;;;;;;3.60;2.00;;;24.00;96.30;;;;;;5011573;28;20026;-73
2022/07/28 09:25:29;;;;;;;3.63;1.67;;;24.00;96.50;;;;;;5011427;28;20034;-72
2022/07/28 09:27:57;;;;;;;5.20;1.60;;;24.10;96.40;;;;;;5011504;28;20037;-72
2022/07/28 09:30:44;;;;;;;3.03;1.85;;;24.30;96.20;;;;;;5010739;28;20459;-73
2022/07/28 09:33:14;;;;;;;;;;;24.50;95.90;;;;;;5011913;28;20530;-73
2022/07/28 09:35:55;;;;;;;4.22;1.65;;;24.60;95.70;;;;;;5011405;28;19912;-73
2022/07/28 09:38:24;;;;;;;2.85;1.70;;;24.60;96.00;;;;;;5011507;28;20022;-73
2022/07/28 09:40:57;;;;;;;4.22;2.25;;;24.40;95.40;;;;;;5010823;28;20026;-73
2022/07/28 09:43:43;;;;;;;5.05;1.90;;;24.00;95.70;;;;;;5011495;28;20439;-73
2022/07/28 09:46:10;;;;;;;2.97;1.70;;;24.50;95.80;;;;;;5011358;28;20029;-73
2022/07/28 09:48:50;;;;;;;4.07;1.90;;;24.90;95.40;;;;;;5006740;28;20041;-73
2022/07/28 09:51:26;;;;;;;6.05;2.10;;;24.80;95.40;;;;;;5009807;28;20022;-73
2022/07/28 09:54:04;;;;;;;5.78;1.80;;;25.00;94.90;;;;;;5011348;28;20073;-73
2022/07/28 09:56:30;;;;;;;5.40;2.22;;;24.80;94.40;;;;;;5011266;28;20053;-73
2022/07/28 09:58:58;;;;;;;5.45;2.10;;;24.90;94.90;;;;;;5011319;28;20061;-73
2022/07/28 10:01:24;;;;;;;5.07;1.92;;;25.10;94.50;;;;;;5010766;28;20480;-72
2022/07/28 10:03:53;;;;;;;3.38;2.00;;;24.90;94.40;;;;;;5026795;28;20387;-72
2022/07/28 10:06:31;;;;;;;4.22;2.28;;;25.30;94.20;;;;;;5031762;28;20053;-72
2022/07/28 10:09:00;;;;;;;5.13;2.38;;;25.10;93.90;;;;;;5034512;28;20032;-72
2022/07/28 10:11:27;;;;;;;5.95;2.35;;;25.40;94.20;;;;;;5032575;28;20383;-72
2022/07/28 10:13:56;;;;;;;2.92;1.90;;;25.70;94.10;;;;;;5034330;28;20021;-73
2022/07/28 10:16:24;;;;;;;4.80;2.40;;;25.90;93.50;;;;;;5034534;28;20018;-73
2022/07/28 10:18:50;;;;;;;4.00;2.20;;;25.70;93.50;;;;;;5034296;28;20029;-73
2022/07/28 10:21:18;;;;;;;3.38;2.50;;;25.60;93.60;;;;;;5033898;28;20029;-73
2022/07/28 10:23:52;;;;;;;5.78;2.50;;;25.80;93.80;;;;;;5034104;28;20021;-72
2022/07/28 10:26:20;;;;;;;4.55;2.20;;;25.90;92.90;;;;;;5034153;28;20022;-72
2022/07/28 10:28:49;;;;;;;4.63;2.10;;;26.00;92.90;;;;;;5034192;28;20055;-72
2022/07/28 10:31:46;;;;;;;4.45;2.40;;;25.90;92.40;;;;;;5033413;28;20024;-72
2022/07/28 10:34:20;;;;;;;3.75;2.25;;;25.50;92.30;;;;;;5032776;28;20069;-72
2022/07/28 10:36:48;;;;;;;2.50;2.17;;;25.30;92.40;;;;;;5033997;28;20563;-73
2022/07/28 10:39:18;;;;;;;4.90;2.00;;;25.30;92.80;;;;;;5033881;28;20044;-73
2022/07/28 10:41:44;;;;;;;3.97;2.22;;;25.90;92.60;;;;;;5033339;28;20026;-72
2022/07/28 10:44:16;;;;;;;3.15;2.33;;;25.90;92.00;;;;;;5033793;28;20048;-72
2022/07/28 10:46:43;;;;;;;4.47;2.20;;;26.10;92.10;;;;;;5033810;28;20025;-72
2022/07/28 10:49:10;;;;;;;3.60;2.13;;;26.00;92.10;;;;;;5031928;28;20029;-72
2022/07/28 10:51:42;;;;;;;7.32;2.65;;;26.10;92.00;;;;;;5013162;28;20025;-72
2022/07/28 10:54:16;;;;;;;4.35;2.30;;;26.40;92.10;;;;;;5013867;28;21070;-72
2022/07/28 10:56:54;;;;;;;3.97;2.20;;;26.60;92.00;;;;;;5010222;28;20107;-72
2022/07/28 10:59:47;;;;;;;4.93;2.33;;;25.80;91.50;;;;;;5012888;28;20112;-72
2022/07/28 11:02:51;;;;;;;4.80;2.33;;;26.20;91.60;;;;;;5012933;28;20506;-73
2022/07/28 11:05:35;;;;;;;4.30;2.10;;;26.70;91.40;;;;;;5013402;28;20124;-72
2022/07/28 11:08:03;;;;;;;5.15;2.20;;;26.80;90.90;;;;;;5012981;28;20018;-72
2022/07/28 11:10:41;;;;;;;2.42;1.95;;;26.50;91.10;;;;;;5019997;28;20047;-73
2022/07/28 11:13:06;;;;;;;5.20;2.45;;;26.40;90.70;;;;;;5027717;28;20025;-73
2022/07/28 11:15:34;;;;;;;3.83;2.63;;;27.00;91.40;;;;;;5007766;28;20030;-73
2022/07/28 11:18:08;;;;;;;3.45;2.25;;;27.20;91.10;;;;;;5012672;28;20109;-72
2022/07/28 11:20:52;;;;;;;3.95;2.33;;;27.00;90.60;;;;;;5012039;28;20034;-73
2022/07/28 11:23:52;;;;;;;4.90;2.42;;;27.20;90.90;;;;;;5011495;28;20045;-73
2022/07/28 11:26:23;;;;;;;4.35;2.17;;;27.20;90.20;;;;;;5002331;28;20034;-73
2022/07/28 11:29:07;;;;;;;4.75;2.38;;;26.90;90.40;;;;;;5009557;28;20022;-72
2022/07/28 11:31:47;;;;;;;4.10;2.55;;;26.50;90.60;;;;;;5011506;28;20108;-72
2022/07/28 11:34:21;;;;;;;4.72;2.60;;;26.30;90.60;;;;;;5012954;28;20455;-72
2022/07/28 11:37:11;;;;;;;2.97;2.25;;;27.10;90.70;;;;;;5016866;28;20109;-73
2022/07/28 11:39:39;;;;;;;3.83;2.08;;;27.50;90.50;;;;;;5016983;28;20057;-72
2022/07/28 11:42:31;;;;;;;5.60;2.42;;;27.50;90.20;;;;;;5027602;28;20487;-72
2022/07/28 11:45:23;;;;;;;4.18;2.50;;;27.40;90.00;;;;;;5018331;28;20109;-73
2022/07/28 11:48:12;;;;;;;5.35;2.65;;;27.30;90.10;;;;;;5012316;28;20076;-73
2022/07/28 11:50:37;;;;;;;7.75;2.55;;;27.60;89.80;;;;;;5013247;28;20053;-73
2022/07/28 11:53:03;;;;;;;5.20;2.97;;;27.50;89.90;;;;;;5020525;28;20089;-73
2022/07/28 11:55:29;;;;;;;5.35;2.58;;;27.50;89.60;;;;;;5025326;28;20547;-73
2022/07/28 11:57:55;;;;;;;3.95;2.60;;;27.10;90.00;;;;;;5014430;28;20021;-73
2022/07/28 12:00:22;;;;;;;4.93;2.67;;;27.10;90.10;;;;;;5026154;28;20383;-73
2022/07/28 12:02:48;;;;;;;3.17;2.40;;;27.90;89.50;;;;;;5020407;28;20029;-73
2022/07/28 12:05:16;;;;;;;6.60;2.60;;;28.20;89.10;;;;;;5026351;28;20027;-73
2022/07/28 12:07:50;;;;;;;4.63;2.60;;;28.10;88.60;;;;;;5026832;28;20021;-73
2022/07/28 12:10:24;;;;;;;5.40;2.45;;;28.50;87.80;;;;;;5020150;28;20503;-72
2022/07/28 12:12:51;;;;;;;8.85;2.85;;;28.50;87.70;;;;;;5026944;28;20476;-73
2022/07/28 12:15:18;;;;;;;4.68;2.67;;;28.40;87.40;;;;;;5012356;28;20128;-73
2022/07/28 12:17:45;;;;;;;3.28;2.50;;;27.70;87.80;;;;;;5012470;28;20029;-73
2022/07/28 12:20:12;;;;;;;5.13;2.53;;;28.20;87.90;;;;;;5012098;28;20022;-72
2022/07/28 12:22:38;;;;;;;5.22;2.80;;;28.50;86.30;;;;;;5011999;28;20080;-72
2022/07/28 12:25:03;;;;;;;3.67;2.30;;;29.00;87.10;;;;;;5010878;28;20022;-73
2022/07/28 12:27:29;;;;;;;3.28;2.50;;;28.90;86.90;;;;;;5012131;28;20025;-73
2022/07/28 12:29:59;;;;;;;5.18;2.83;;;28.90;86.40;;;;;;5011598;28;20022;-72
2022/07/28 12:32:33;;;;;;;3.85;2.38;;;29.00;85.90;;;;;;5011608;28;20018;-73
2022/07/28 12:35:00;;;;;;;2.78;2.38;;;28.90;85.30;;;;;;5012154;28;20029;-73
2022/07/28 12:37:26;;;;;;;3.38;2.15;;;29.30;84.90;;;;;;5012149;28;20488;-72
2022/07/28 12:39:52;;;;;;;5.63;2.40;;;29.80;85.40;;;;;;5011995;28;20034;-73
2022/07/28 12:42:18;;;;;;;4.78;2.30;;;30.10;84.50;;;;;;5011416;28;20129;-73
2022/07/28 12:44:50;;;;;;;5.32;2.50;;;29.70;84.10;;;;;;5011896;28;20030;-72
2022/07/28 12:47:25;;;;;;;5.13;2.47;;;29.80;84.30;;;;;;5011914;28;20113;-73
2022/07/28 12:50:06;;;;;;;;;;;30.50;84.00;;;;;;5012349;28;20025;-72
2022/07/28 12:52:32;;;;;;;4.80;2.70;;;30.80;83.40;;;;;;5005747;28;19916;-73
2022/07/28 12:54:58;;;;;;;5.45;2.60;;;30.50;81.70;;;;;;5008394;28;20079;-73
2022/07/28 12:57:40;;;;;;;6.68;2.58;;;30.50;82.90;;;;;;5011653;28;20148;-73